sensor_id;sensor_type;location;lat;lon;timestamp;P1;durP1;ratioP1;P2;durP2;ratioP2
14748;SDS011;7466;53.574;9.976;2023-02-28T00:00:46;2.97;;;1.87;;
14748;SDS011;7466;53.574;9.976;2023-02-28T00:03:13;3.63;;;2.10;;
14748;SDS011;7466;53.574;9.976;2023-02-28T00:05:40;5.60;;;2.60;;
14748;SDS011;7466;53.574;9.976;2023-02-28T00:08:07;4.07;;;2.47;;
14748;SDS011;7466;53.574;9.976;2023-02-28T00:10:34;4.43;;;2.13;;
14748;SDS011;7466;53.574;9.976;2023-02-28T00:13:02;2.77;;;1.70;;
14748;SDS011;7466;53.574;9.976;2023-02-28T00:15:32;3.73;;;2.10;;
14748;SDS011;7466;53.574;9.976;2023-02-28T00:17:59;4.37;;;2.20;;
14748;SDS011;7466;53.574;9.976;2023-02-28T00:20:26;5.47;;;2.20;;
14748;SDS011;7466;53.574;9.976;2023-02-28T00:22:53;3.03;;;1.83;;
14748;SDS011;7466;53.574;9.976;2023-02-28T00:25:22;2.43;;;2.23;;
14748;SDS011;7466;53.574;9.976;2023-02-28T00:27:51;4.33;;;2.40;;
14748;SDS011;7466;53.574;9.976;2023-02-28T00:30:19;5.53;;;2.50;;
14748;SDS011;7466;53.574;9.976;2023-02-28T00:32:48;4.43;;;2.60;;
14748;SDS011;7466;53.574;9.976;2023-02-28T00:35:15;4.10;;;2.70;;
14748;SDS011;7466;53.574;9.976;2023-02-28T00:37:42;3.80;;;2.60;;
14748;SDS011;7466;53.574;9.976;2023-02-28T00:40:10;4.80;;;2.13;;
14748;SDS011;7466;53.574;9.976;2023-02-28T00:42:37;4.90;;;2.70;;
14748;SDS011;7466;53.574;9.976;2023-02-28T00:45:05;4.37;;;2.77;;
14748;SDS011;7466;53.574;9.976;2023-02-28T00:47:33;3.00;;;2.70;;
14748;SDS011;7466;53.574;9.976;2023-02-28T00:50:02;4.67;;;2.63;;
14748;SDS011;7466;53.574;9.976;2023-02-28T00:52:29;4.07;;;2.33;;
14748;SDS011;7466;53.574;9.976;2023-02-28T00:54:56;5.03;;;2.20;;
14748;SDS011;7466;53.574;9.976;2023-02-28T00:57:25;6.67;;;2.60;;
14748;SDS011;7466;53.574;9.976;2023-02-28T00:59:52;3.97;;;2.70;;
14748;SDS011;7466;53.574;9.976;2023-02-28T01:02:20;5.20;;;2.97;;
14748;SDS011;7466;53.574;9.976;2023-02-28T01:04:47;3.57;;;2.50;;
14748;SDS011;7466;53.574;9.976;2023-02-28T01:07:15;4.17;;;3.00;;
14748;SDS011;7466;53.574;9.976;2023-02-28T01:09:42;4.90;;;2.47;;
14748;SDS011;7466;53.574;9.976;2023-02-28T01:12:09;3.53;;;2.30;;
14748;SDS011;7466;53.574;9.976;2023-02-28T01:14:36;3.97;;;2.73;;
14748;SDS011;7466;53.574;9.976;2023-02-28T01:17:03;4.27;;;2.60;;
14748;SDS011;7466;53.574;9.976;2023-02-28T01:19:30;4.07;;;3.07;;
14748;SDS011;7466;53.574;9.976;2023-02-28T01:21:57;5.70;;;3.67;;
14748;SDS011;7466;53.574;9.976;2023-02-28T01:24:28;5.43;;;3.00;;
14748;SDS011;7466;53.574;9.976;2023-02-28T01:26:56;4.00;;;2.70;;
14748;SDS011;7466;53.574;9.976;2023-02-28T01:29:23;3.07;;;2.50;;
14748;SDS011;7466;53.574;9.976;2023-02-28T01:31:50;4.30;;;3.00;;
14748;SDS011;7466;53.574;9.976;2023-02-28T01:34:17;4.93;;;2.97;;
14748;SDS011;7466;53.574;9.976;2023-02-28T01:36:46;5.80;;;3.43;;
14748;SDS011;7466;53.574;9.976;2023-02-28T01:39:13;3.50;;;3.13;;
14748;SDS011;7466;53.574;9.976;2023-02-28T01:41:41;6.83;;;4.90;;
14748;SDS011;7466;53.574;9.976;2023-02-28T01:47:09;13.20;;;7.60;;
14748;SDS011;7466;53.574;9.976;2023-02-28T01:49:36;12.17;;;7.17;;
14748;SDS011;7466;53.574;9.976;2023-02-28T01:52:03;12.67;;;7.13;;
14748;SDS011;7466;53.574;9.976;2023-02-28T01:54:31;12.33;;;7.07;;
14748;SDS011;7466;53.574;9.976;2023-02-28T01:57:07;10.90;;;6.40;;
14748;SDS011;7466;53.574;9.976;2023-02-28T01:59:40;10.17;;;5.63;;
14748;SDS011;7466;53.574;9.976;2023-02-28T02:02:11;6.97;;;4.80;;
14748;SDS011;7466;53.574;9.976;2023-02-28T02:04:43;7.80;;;5.50;;
14748;SDS011;7466;53.574;9.976;2023-02-28T02:07:16;9.70;;;7.13;;
14748;SDS011;7466;53.574;9.976;2023-02-28T02:09:43;20.83;;;11.80;;
14748;SDS011;7466;53.574;9.976;2023-02-28T02:12:15;22.63;;;13.10;;
14748;SDS011;7466;53.574;9.976;2023-02-28T02:14:54;29.43;;;15.63;;
14748;SDS011;7466;53.574;9.976;2023-02-28T02:17:29;37.07;;;20.03;;
14748;SDS011;7466;53.574;9.976;2023-02-28T02:26:24;139.77;;;57.20;;
14748;SDS011;7466;53.574;9.976;2023-02-28T02:32:18;152.93;;;61.10;;
14748;SDS011;7466;53.574;9.976;2023-02-28T02:35:11;97.57;;;41.97;;
14748;SDS011;7466;53.574;9.976;2023-02-28T02:37:42;57.87;;;26.03;;
14748;SDS011;7466;53.574;9.976;2023-02-28T02:40:13;59.30;;;27.53;;
14748;SDS011;7466;53.574;9.976;2023-02-28T02:42:45;64.27;;;29.73;;
14748;SDS011;7466;53.574;9.976;2023-02-28T02:45:17;60.40;;;26.27;;
14748;SDS011;7466;53.574;9.976;2023-02-28T02:47:49;26.83;;;12.37;;
14748;SDS011;7466;53.574;9.976;2023-02-28T02:50:19;32.77;;;14.53;;
14748;SDS011;7466;53.574;9.976;2023-02-28T02:52:51;51.20;;;23.33;;
14748;SDS011;7466;53.574;9.976;2023-02-28T02:55:22;75.13;;;30.63;;
14748;SDS011;7466;53.574;9.976;2023-02-28T02:57:54;60.30;;;27.33;;
14748;SDS011;7466;53.574;9.976;2023-02-28T03:00:24;84.57;;;34.17;;
14748;SDS011;7466;53.574;9.976;2023-02-28T03:02:54;74.33;;;31.33;;
14748;SDS011;7466;53.574;9.976;2023-02-28T03:05:25;66.20;;;28.17;;
14748;SDS011;7466;53.574;9.976;2023-02-28T03:07:56;50.00;;;22.93;;
14748;SDS011;7466;53.574;9.976;2023-02-28T03:10:27;45.30;;;21.00;;
14748;SDS011;7466;53.574;9.976;2023-02-28T03:13:00;35.50;;;16.77;;
14748;SDS011;7466;53.574;9.976;2023-02-28T03:15:39;32.50;;;12.97;;
14748;SDS011;7466;53.574;9.976;2023-02-28T03:18:22;23.93;;;10.33;;
14748;SDS011;7466;53.574;9.976;2023-02-28T03:21:00;23.17;;;10.20;;
14748;SDS011;7466;53.574;9.976;2023-02-28T03:23:35;13.83;;;7.50;;
14748;SDS011;7466;53.574;9.976;2023-02-28T03:26:11;15.20;;;8.40;;
14748;SDS011;7466;53.574;9.976;2023-02-28T03:28:44;14.17;;;7.97;;
14748;SDS011;7466;53.574;9.976;2023-02-28T03:31:19;11.70;;;6.67;;
14748;SDS011;7466;53.574;9.976;2023-02-28T03:33:54;14.67;;;7.50;;
14748;SDS011;7466;53.574;9.976;2023-02-28T03:36:27;13.70;;;7.43;;
14748;SDS011;7466;53.574;9.976;2023-02-28T03:38:57;9.57;;;6.83;;
14748;SDS011;7466;53.574;9.976;2023-02-28T03:41:31;9.43;;;6.67;;
14748;SDS011;7466;53.574;9.976;2023-02-28T03:44:05;12.47;;;7.60;;
14748;SDS011;7466;53.574;9.976;2023-02-28T03:46:36;18.57;;;9.03;;
14748;SDS011;7466;53.574;9.976;2023-02-28T03:49:09;21.60;;;9.67;;
14748;SDS011;7466;53.574;9.976;2023-02-28T03:51:42;14.77;;;8.10;;
14748;SDS011;7466;53.574;9.976;2023-02-28T03:54:12;19.93;;;9.67;;
14748;SDS011;7466;53.574;9.976;2023-02-28T03:56:45;17.27;;;9.23;;
14748;SDS011;7466;53.574;9.976;2023-02-28T03:59:20;19.83;;;10.20;;
14748;SDS011;7466;53.574;9.976;2023-02-28T04:01:52;19.67;;;9.67;;
14748;SDS011;7466;53.574;9.976;2023-02-28T04:04:20;18.13;;;9.60;;
14748;SDS011;7466;53.574;9.976;2023-02-28T04:06:50;16.30;;;9.10;;
14748;SDS011;7466;53.574;9.976;2023-02-28T04:09:18;17.30;;;9.23;;
14748;SDS011;7466;53.574;9.976;2023-02-28T04:11:45;16.90;;;9.43;;
14748;SDS011;7466;53.574;9.976;2023-02-28T04:14:16;15.10;;;9.37;;
14748;SDS011;7466;53.574;9.976;2023-02-28T04:16:43;20.17;;;10.53;;
14748;SDS011;7466;53.574;9.976;2023-02-28T04:19:11;23.27;;;11.40;;
14748;SDS011;7466;53.574;9.976;2023-02-28T04:21:40;20.23;;;10.53;;
14748;SDS011;7466;53.574;9.976;2023-02-28T04:24:11;17.83;;;9.87;;
14748;SDS011;7466;53.574;9.976;2023-02-28T04:26:40;16.53;;;9.47;;
14748;SDS011;7466;53.574;9.976;2023-02-28T04:29:09;22.07;;;11.30;;
14748;SDS011;7466;53.574;9.976;2023-02-28T04:31:36;22.53;;;9.97;;
14748;SDS011;7466;53.574;9.976;2023-02-28T04:34:03;21.47;;;10.73;;
14748;SDS011;7466;53.574;9.976;2023-02-28T04:36:30;23.50;;;11.60;;
14748;SDS011;7466;53.574;9.976;2023-02-28T04:38:57;17.87;;;10.23;;
14748;SDS011;7466;53.574;9.976;2023-02-28T04:41:26;21.07;;;9.10;;
14748;SDS011;7466;53.574;9.976;2023-02-28T04:43:53;17.50;;;8.63;;
14748;SDS011;7466;53.574;9.976;2023-02-28T04:46:20;13.73;;;8.40;;
14748;SDS011;7466;53.574;9.976;2023-02-28T04:48:47;14.07;;;9.33;;
14748;SDS011;7466;53.574;9.976;2023-02-28T04:51:15;20.77;;;11.30;;
14748;SDS011;7466;53.574;9.976;2023-02-28T04:53:44;18.83;;;11.60;;
14748;SDS011;7466;53.574;9.976;2023-02-28T04:56:13;19.80;;;10.97;;
14748;SDS011;7466;53.574;9.976;2023-02-28T04:58:49;18.90;;;10.47;;
14748;SDS011;7466;53.574;9.976;2023-02-28T05:01:19;23.67;;;10.60;;
14748;SDS011;7466;53.574;9.976;2023-02-28T05:03:48;24.93;;;11.83;;
14748;SDS011;7466;53.574;9.976;2023-02-28T05:06:16;23.00;;;12.10;;
14748;SDS011;7466;53.574;9.976;2023-02-28T05:08:43;24.17;;;11.80;;
14748;SDS011;7466;53.574;9.976;2023-02-28T05:11:15;20.50;;;12.10;;
14748;SDS011;7466;53.574;9.976;2023-02-28T05:13:43;22.53;;;10.57;;
14748;SDS011;7466;53.574;9.976;2023-02-28T05:16:12;21.20;;;10.37;;
14748;SDS011;7466;53.574;9.976;2023-02-28T05:18:39;18.27;;;9.43;;
14748;SDS011;7466;53.574;9.976;2023-02-28T05:21:05;14.23;;;8.93;;
14748;SDS011;7466;53.574;9.976;2023-02-28T05:23:44;15.83;;;8.90;;
14748;SDS011;7466;53.574;9.976;2023-02-28T05:26:10;14.87;;;8.70;;
14748;SDS011;7466;53.574;9.976;2023-02-28T05:28:37;15.57;;;9.00;;
14748;SDS011;7466;53.574;9.976;2023-02-28T05:31:04;15.83;;;8.07;;
14748;SDS011;7466;53.574;9.976;2023-02-28T05:33:34;10.57;;;7.10;;
14748;SDS011;7466;53.574;9.976;2023-02-28T05:36:01;10.03;;;7.27;;
14748;SDS011;7466;53.574;9.976;2023-02-28T05:38:28;11.67;;;6.40;;
14748;SDS011;7466;53.574;9.976;2023-02-28T05:40:56;10.53;;;7.10;;
14748;SDS011;7466;53.574;9.976;2023-02-28T05:43:22;10.73;;;7.53;;
14748;SDS011;7466;53.574;9.976;2023-02-28T05:45:49;12.10;;;7.73;;
14748;SDS011;7466;53.574;9.976;2023-02-28T05:48:16;10.87;;;7.00;;
14748;SDS011;7466;53.574;9.976;2023-02-28T05:50:44;14.23;;;7.03;;
14748;SDS011;7466;53.574;9.976;2023-02-28T05:53:12;9.63;;;7.47;;
14748;SDS011;7466;53.574;9.976;2023-02-28T05:55:39;13.73;;;8.57;;
14748;SDS011;7466;53.574;9.976;2023-02-28T05:58:09;9.57;;;7.97;;
14748;SDS011;7466;53.574;9.976;2023-02-28T06:00:35;16.80;;;10.93;;
14748;SDS011;7466;53.574;9.976;2023-02-28T06:03:02;11.70;;;9.03;;
14748;SDS011;7466;53.574;9.976;2023-02-28T06:05:29;13.07;;;8.60;;
14748;SDS011;7466;53.574;9.976;2023-02-28T06:07:57;13.90;;;8.57;;
14748;SDS011;7466;53.574;9.976;2023-02-28T06:10:24;9.77;;;7.87;;
14748;SDS011;7466;53.574;9.976;2023-02-28T06:12:51;12.87;;;8.50;;
14748;SDS011;7466;53.574;9.976;2023-02-28T06:15:18;13.47;;;7.40;;
14748;SDS011;7466;53.574;9.976;2023-02-28T06:17:45;13.17;;;8.00;;
14748;SDS011;7466;53.574;9.976;2023-02-28T06:20:13;12.03;;;8.23;;
14748;SDS011;7466;53.574;9.976;2023-02-28T06:22:39;15.70;;;8.53;;
14748;SDS011;7466;53.574;9.976;2023-02-28T06:25:09;14.33;;;8.07;;
14748;SDS011;7466;53.574;9.976;2023-02-28T06:27:36;10.83;;;7.97;;
14748;SDS011;7466;53.574;9.976;2023-02-28T06:30:03;16.40;;;8.60;;
14748;SDS011;7466;53.574;9.976;2023-02-28T06:32:32;10.77;;;7.60;;
14748;SDS011;7466;53.574;9.976;2023-02-28T06:34:59;19.50;;;8.40;;
14748;SDS011;7466;53.574;9.976;2023-02-28T06:37:26;9.50;;;7.53;;
14748;SDS011;7466;53.574;9.976;2023-02-28T06:39:53;13.37;;;7.90;;
14748;SDS011;7466;53.574;9.976;2023-02-28T06:42:24;14.10;;;8.33;;
14748;SDS011;7466;53.574;9.976;2023-02-28T06:44:54;12.37;;;8.47;;
14748;SDS011;7466;53.574;9.976;2023-02-28T06:47:22;18.97;;;8.43;;
14748;SDS011;7466;53.574;9.976;2023-02-28T06:49:49;14.73;;;8.50;;
14748;SDS011;7466;53.574;9.976;2023-02-28T06:52:16;14.67;;;8.30;;
14748;SDS011;7466;53.574;9.976;2023-02-28T06:54:43;13.97;;;8.00;;
14748;SDS011;7466;53.574;9.976;2023-02-28T06:57:10;14.50;;;8.67;;
14748;SDS011;7466;53.574;9.976;2023-02-28T06:59:38;17.73;;;9.00;;
14748;SDS011;7466;53.574;9.976;2023-02-28T07:02:05;15.37;;;8.83;;
14748;SDS011;7466;53.574;9.976;2023-02-28T07:04:34;13.57;;;8.50;;
14748;SDS011;7466;53.574;9.976;2023-02-28T07:07:00;17.20;;;8.57;;
14748;SDS011;7466;53.574;9.976;2023-02-28T07:09:27;14.77;;;8.73;;
14748;SDS011;7466;53.574;9.976;2023-02-28T07:11:55;19.63;;;10.47;;
14748;SDS011;7466;53.574;9.976;2023-02-28T07:14:21;17.10;;;9.07;;
14748;SDS011;7466;53.574;9.976;2023-02-28T07:16:50;18.47;;;8.93;;
14748;SDS011;7466;53.574;9.976;2023-02-28T07:19:18;22.67;;;10.43;;
14748;SDS011;7466;53.574;9.976;2023-02-28T07:21:45;16.47;;;9.67;;
14748;SDS011;7466;53.574;9.976;2023-02-28T07:24:12;21.93;;;9.93;;
14748;SDS011;7466;53.574;9.976;2023-02-28T07:26:40;25.37;;;11.13;;
14748;SDS011;7466;53.574;9.976;2023-02-28T07:29:07;19.63;;;10.30;;
14748;SDS011;7466;53.574;9.976;2023-02-28T07:31:34;20.77;;;11.00;;
14748;SDS011;7466;53.574;9.976;2023-02-28T07:34:02;20.90;;;9.60;;
14748;SDS011;7466;53.574;9.976;2023-02-28T07:36:29;20.03;;;10.03;;
14748;SDS011;7466;53.574;9.976;2023-02-28T07:38:56;15.70;;;8.13;;
14748;SDS011;7466;53.574;9.976;2023-02-28T07:41:24;12.80;;;7.67;;
14748;SDS011;7466;53.574;9.976;2023-02-28T07:43:53;10.87;;;7.43;;
14748;SDS011;7466;53.574;9.976;2023-02-28T07:46:22;11.10;;;7.73;;
14748;SDS011;7466;53.574;9.976;2023-02-28T07:48:49;10.57;;;7.20;;
14748;SDS011;7466;53.574;9.976;2023-02-28T07:51:17;11.27;;;7.03;;
14748;SDS011;7466;53.574;9.976;2023-02-28T07:53:44;12.00;;;7.00;;
14748;SDS011;7466;53.574;9.976;2023-02-28T07:56:10;10.93;;;7.50;;
14748;SDS011;7466;53.574;9.976;2023-02-28T07:58:45;14.17;;;8.17;;
14748;SDS011;7466;53.574;9.976;2023-02-28T08:01:16;10.10;;;7.77;;
14748;SDS011;7466;53.574;9.976;2023-02-28T08:03:44;10.37;;;7.80;;
14748;SDS011;7466;53.574;9.976;2023-02-28T08:06:15;12.00;;;8.70;;
14748;SDS011;7466;53.574;9.976;2023-02-28T08:08:46;12.60;;;7.47;;
14748;SDS011;7466;53.574;9.976;2023-02-28T08:11:17;12.73;;;7.17;;
14748;SDS011;7466;53.574;9.976;2023-02-28T08:13:44;9.47;;;7.40;;
14748;SDS011;7466;53.574;9.976;2023-02-28T08:16:12;8.93;;;6.43;;
14748;SDS011;7466;53.574;9.976;2023-02-28T08:18:43;11.97;;;5.23;;
14748;SDS011;7466;53.574;9.976;2023-02-28T08:21:10;11.60;;;5.27;;
14748;SDS011;7466;53.574;9.976;2023-02-28T08:23:40;6.77;;;5.30;;
14748;SDS011;7466;53.574;9.976;2023-02-28T08:26:07;8.00;;;4.90;;
14748;SDS011;7466;53.574;9.976;2023-02-28T08:28:34;8.37;;;5.07;;
14748;SDS011;7466;53.574;9.976;2023-02-28T08:31:01;7.00;;;4.90;;
14748;SDS011;7466;53.574;9.976;2023-02-28T08:33:34;7.97;;;4.27;;
14748;SDS011;7466;53.574;9.976;2023-02-28T08:36:02;4.83;;;3.60;;
14748;SDS011;7466;53.574;9.976;2023-02-28T08:38:29;8.50;;;3.80;;
14748;SDS011;7466;53.574;9.976;2023-02-28T08:41:01;4.10;;;3.33;;
14748;SDS011;7466;53.574;9.976;2023-02-28T08:43:31;4.47;;;2.80;;
14748;SDS011;7466;53.574;9.976;2023-02-28T08:45:58;3.37;;;2.10;;
14748;SDS011;7466;53.574;9.976;2023-02-28T08:48:26;1.97;;;1.87;;
14748;SDS011;7466;53.574;9.976;2023-02-28T08:50:54;2.13;;;1.87;;
14748;SDS011;7466;53.574;9.976;2023-02-28T08:53:24;3.53;;;1.77;;
14748;SDS011;7466;53.574;9.976;2023-02-28T08:55:56;4.00;;;2.20;;
14748;SDS011;7466;53.574;9.976;2023-02-28T08:58:25;3.03;;;2.23;;
14748;SDS011;7466;53.574;9.976;2023-02-28T09:00:54;3.20;;;1.63;;
14748;SDS011;7466;53.574;9.976;2023-02-28T09:03:22;2.70;;;1.90;;
14748;SDS011;7466;53.574;9.976;2023-02-28T09:05:53;2.77;;;2.07;;
14748;SDS011;7466;53.574;9.976;2023-02-28T09:08:21;3.13;;;1.80;;
14748;SDS011;7466;53.574;9.976;2023-02-28T09:10:58;2.60;;;2.00;;
14748;SDS011;7466;53.574;9.976;2023-02-28T09:13:28;2.87;;;2.10;;
14748;SDS011;7466;53.574;9.976;2023-02-28T09:15:58;1.80;;;1.67;;
14748;SDS011;7466;53.574;9.976;2023-02-28T09:18:34;3.77;;;1.63;;
14748;SDS011;7466;53.574;9.976;2023-02-28T09:21:02;5.90;;;1.87;;
14748;SDS011;7466;53.574;9.976;2023-02-28T09:23:32;3.17;;;1.90;;
14748;SDS011;7466;53.574;9.976;2023-02-28T09:25:59;3.53;;;2.10;;
14748;SDS011;7466;53.574;9.976;2023-02-28T09:28:28;2.33;;;1.77;;
14748;SDS011;7466;53.574;9.976;2023-02-28T09:30:55;2.27;;;2.07;;
14748;SDS011;7466;53.574;9.976;2023-02-28T09:33:25;2.70;;;1.60;;
14748;SDS011;7466;53.574;9.976;2023-02-28T09:35:57;3.00;;;1.83;;
14748;SDS011;7466;53.574;9.976;2023-02-28T09:38:26;2.30;;;2.10;;
14748;SDS011;7466;53.574;9.976;2023-02-28T09:40:59;1.80;;;1.67;;
14748;SDS011;7466;53.574;9.976;2023-02-28T09:43:32;6.17;;;2.00;;
14748;SDS011;7466;53.574;9.976;2023-02-28T09:46:02;4.17;;;1.37;;
14748;SDS011;7466;53.574;9.976;2023-02-28T09:48:45;2.33;;;1.30;;
14748;SDS011;7466;53.574;9.976;2023-02-28T09:51:23;2.27;;;1.13;;
14748;SDS011;7466;53.574;9.976;2023-02-28T09:53:59;3.93;;;1.70;;
14748;SDS011;7466;53.574;9.976;2023-02-28T09:56:28;1.57;;;1.40;;
14748;SDS011;7466;53.574;9.976;2023-02-28T09:59:02;1.93;;;1.73;;
14748;SDS011;7466;53.574;9.976;2023-02-28T10:01:37;2.87;;;1.50;;
14748;SDS011;7466;53.574;9.976;2023-02-28T10:04:12;2.13;;;1.73;;
14748;SDS011;7466;53.574;9.976;2023-02-28T10:06:50;1.73;;;1.63;;
14748;SDS011;7466;53.574;9.976;2023-02-28T10:09:21;3.00;;;1.50;;
14748;SDS011;7466;53.574;9.976;2023-02-28T10:11:51;1.70;;;1.60;;
14748;SDS011;7466;53.574;9.976;2023-02-28T10:14:29;4.50;;;1.60;;
14748;SDS011;7466;53.574;9.976;2023-02-28T10:17:01;2.23;;;2.00;;
14748;SDS011;7466;53.574;9.976;2023-02-28T10:19:31;2.20;;;2.00;;
14748;SDS011;7466;53.574;9.976;2023-02-28T10:22:04;1.80;;;1.70;;
14748;SDS011;7466;53.574;9.976;2023-02-28T10:24:41;1.73;;;1.43;;
14748;SDS011;7466;53.574;9.976;2023-02-28T10:27:13;2.77;;;1.70;;
14748;SDS011;7466;53.574;9.976;2023-02-28T10:29:44;2.27;;;1.50;;
14748;SDS011;7466;53.574;9.976;2023-02-28T10:32:14;3.60;;;1.70;;
14748;SDS011;7466;53.574;9.976;2023-02-28T10:34:42;1.73;;;1.60;;
14748;SDS011;7466;53.574;9.976;2023-02-28T10:37:10;1.60;;;1.50;;
14748;SDS011;7466;53.574;9.976;2023-02-28T10:39:40;2.57;;;1.67;;
14748;SDS011;7466;53.574;9.976;2023-02-28T10:42:24;4.23;;;1.57;;
14748;SDS011;7466;53.574;9.976;2023-02-28T10:45:10;3.00;;;1.90;;
14748;SDS011;7466;53.574;9.976;2023-02-28T10:47:49;1.80;;;1.60;;
14748;SDS011;7466;53.574;9.976;2023-02-28T10:50:31;1.90;;;1.70;;
14748;SDS011;7466;53.574;9.976;2023-02-28T10:53:28;2.23;;;1.70;;
14748;SDS011;7466;53.574;9.976;2023-02-28T10:56:00;3.63;;;1.50;;
14748;SDS011;7466;53.574;9.976;2023-02-28T10:58:34;2.27;;;1.87;;
14748;SDS011;7466;53.574;9.976;2023-02-28T11:01:20;2.20;;;1.77;;
14748;SDS011;7466;53.574;9.976;2023-02-28T11:03:51;3.07;;;1.53;;
14748;SDS011;7466;53.574;9.976;2023-02-28T11:06:19;1.97;;;1.67;;
14748;SDS011;7466;53.574;9.976;2023-02-28T11:08:49;1.97;;;1.43;;
14748;SDS011;7466;53.574;9.976;2023-02-28T11:11:18;1.90;;;1.80;;
14748;SDS011;7466;53.574;9.976;2023-02-28T11:13:47;1.80;;;1.70;;
14748;SDS011;7466;53.574;9.976;2023-02-28T11:16:21;3.13;;;1.90;;
14748;SDS011;7466;53.574;9.976;2023-02-28T11:18:58;1.90;;;1.70;;
14748;SDS011;7466;53.574;9.976;2023-02-28T11:21:30;2.20;;;1.80;;
14748;SDS011;7466;53.574;9.976;2023-02-28T11:24:01;2.07;;;1.83;;
14748;SDS011;7466;53.574;9.976;2023-02-28T11:26:39;5.93;;;2.20;;
14748;SDS011;7466;53.574;9.976;2023-02-28T11:29:12;2.50;;;2.07;;
14748;SDS011;7466;53.574;9.976;2023-02-28T11:31:51;2.33;;;2.13;;
14748;SDS011;7466;53.574;9.976;2023-02-28T11:34:28;2.30;;;2.10;;
14748;SDS011;7466;53.574;9.976;2023-02-28T11:36:57;2.10;;;1.90;;
14748;SDS011;7466;53.574;9.976;2023-02-28T11:39:26;2.23;;;1.97;;
14748;SDS011;7466;53.574;9.976;2023-02-28T11:42:01;3.57;;;2.00;;
14748;SDS011;7466;53.574;9.976;2023-02-28T11:44:48;2.40;;;2.20;;
14748;SDS011;7466;53.574;9.976;2023-02-28T11:47:32;2.20;;;2.00;;
14748;SDS011;7466;53.574;9.976;2023-02-28T11:53:05;4.30;;;2.10;;
14748;SDS011;7466;53.574;9.976;2023-02-28T11:55:41;2.30;;;2.10;;
14748;SDS011;7466;53.574;9.976;2023-02-28T11:58:19;3.90;;;1.97;;
14748;SDS011;7466;53.574;9.976;2023-02-28T12:01:00;6.90;;;2.37;;
14748;SDS011;7466;53.574;9.976;2023-02-28T12:03:42;3.20;;;2.10;;
14748;SDS011;7466;53.574;9.976;2023-02-28T12:06:21;4.43;;;2.60;;
14748;SDS011;7466;53.574;9.976;2023-02-28T12:08:55;3.53;;;2.40;;
14748;SDS011;7466;53.574;9.976;2023-02-28T12:11:42;4.90;;;2.73;;
14748;SDS011;7466;53.574;9.976;2023-02-28T12:14:28;3.47;;;2.20;;
14748;SDS011;7466;53.574;9.976;2023-02-28T12:17:22;5.73;;;2.50;;
14748;SDS011;7466;53.574;9.976;2023-02-28T12:20:02;2.77;;;2.53;;
14748;SDS011;7466;53.574;9.976;2023-02-28T12:22:41;3.57;;;2.40;;
14748;SDS011;7466;53.574;9.976;2023-02-28T12:25:31;3.83;;;2.17;;
14748;SDS011;7466;53.574;9.976;2023-02-28T12:28:23;2.40;;;2.17;;
14748;SDS011;7466;53.574;9.976;2023-02-28T12:30:57;3.53;;;2.27;;
14748;SDS011;7466;53.574;9.976;2023-02-28T12:33:28;4.23;;;3.00;;
14748;SDS011;7466;53.574;9.976;2023-02-28T12:36:03;3.43;;;2.70;;
14748;SDS011;7466;53.574;9.976;2023-02-28T12:38:41;3.83;;;3.43;;
14748;SDS011;7466;53.574;9.976;2023-02-28T12:41:14;5.73;;;2.87;;
14748;SDS011;7466;53.574;9.976;2023-02-28T12:43:43;3.00;;;2.70;;
14748;SDS011;7466;53.574;9.976;2023-02-28T12:46:14;4.60;;;2.40;;
14748;SDS011;7466;53.574;9.976;2023-02-28T12:48:52;2.57;;;2.37;;
14748;SDS011;7466;53.574;9.976;2023-02-28T12:51:24;4.07;;;2.67;;
14748;SDS011;7466;53.574;9.976;2023-02-28T12:53:54;5.03;;;2.40;;
14748;SDS011;7466;53.574;9.976;2023-02-28T12:56:31;5.10;;;2.40;;
14748;SDS011;7466;53.574;9.976;2023-02-28T12:59:07;5.43;;;2.60;;
14748;SDS011;7466;53.574;9.976;2023-02-28T13:01:50;4.40;;;2.50;;
14748;SDS011;7466;53.574;9.976;2023-02-28T13:04:42;5.67;;;2.40;;
14748;SDS011;7466;53.574;9.976;2023-02-28T13:07:33;3.53;;;2.50;;
14748;SDS011;7466;53.574;9.976;2023-02-28T13:10:19;2.87;;;2.47;;
14748;SDS011;7466;53.574;9.976;2023-02-28T13:12:47;3.97;;;2.77;;
14748;SDS011;7466;53.574;9.976;2023-02-28T13:15:18;5.27;;;3.00;;
14748;SDS011;7466;53.574;9.976;2023-02-28T13:17:49;4.43;;;2.73;;
14748;SDS011;7466;53.574;9.976;2023-02-28T13:20:18;5.17;;;2.23;;
14748;SDS011;7466;53.574;9.976;2023-02-28T13:22:50;2.87;;;2.40;;
14748;SDS011;7466;53.574;9.976;2023-02-28T13:31:31;7.20;;;2.40;;
14748;SDS011;7466;53.574;9.976;2023-02-28T13:36:42;5.13;;;2.47;;
14748;SDS011;7466;53.574;9.976;2023-02-28T13:42:22;5.67;;;2.60;;
14748;SDS011;7466;53.574;9.976;2023-02-28T13:47:53;3.47;;;2.37;;
14748;SDS011;7466;53.574;9.976;2023-02-28T13:50:24;2.97;;;2.30;;
14748;SDS011;7466;53.574;9.976;2023-02-28T13:53:02;3.27;;;2.60;;
14748;SDS011;7466;53.574;9.976;2023-02-28T13:55:51;3.73;;;2.60;;
14748;SDS011;7466;53.574;9.976;2023-02-28T13:58:32;6.13;;;2.50;;
14748;SDS011;7466;53.574;9.976;2023-02-28T14:01:18;2.97;;;2.70;;
14748;SDS011;7466;53.574;9.976;2023-02-28T14:04:06;6.70;;;2.60;;
14748;SDS011;7466;53.574;9.976;2023-02-28T14:06:55;4.37;;;2.30;;
14748;SDS011;7466;53.574;9.976;2023-02-28T14:09:24;2.60;;;2.40;;
14748;SDS011;7466;53.574;9.976;2023-02-28T14:11:54;3.07;;;2.40;;
14748;SDS011;7466;53.574;9.976;2023-02-28T14:17:20;4.70;;;2.50;;
14748;SDS011;7466;53.574;9.976;2023-02-28T14:19:47;3.87;;;2.70;;
14748;SDS011;7466;53.574;9.976;2023-02-28T14:22:18;4.90;;;2.37;;
14748;SDS011;7466;53.574;9.976;2023-02-28T14:25:08;3.37;;;2.60;;
14748;SDS011;7466;53.574;9.976;2023-02-28T14:27:47;2.87;;;2.40;;
14748;SDS011;7466;53.574;9.976;2023-02-28T14:33:41;4.33;;;2.80;;
14748;SDS011;7466;53.574;9.976;2023-02-28T14:36:27;4.63;;;2.93;;
14748;SDS011;7466;53.574;9.976;2023-02-28T14:38:59;4.00;;;2.77;;
14748;SDS011;7466;53.574;9.976;2023-02-28T14:41:32;2.70;;;2.40;;
14748;SDS011;7466;53.574;9.976;2023-02-28T14:44:12;4.37;;;2.77;;
14748;SDS011;7466;53.574;9.976;2023-02-28T14:46:41;3.83;;;2.30;;
14748;SDS011;7466;53.574;9.976;2023-02-28T14:49:12;2.87;;;2.67;;
14748;SDS011;7466;53.574;9.976;2023-02-28T14:51:43;5.60;;;2.93;;
14748;SDS011;7466;53.574;9.976;2023-02-28T14:54:13;5.77;;;2.93;;
14748;SDS011;7466;53.574;9.976;2023-02-28T14:56:42;4.77;;;2.63;;
14748;SDS011;7466;53.574;9.976;2023-02-28T14:59:28;3.30;;;2.43;;
14748;SDS011;7466;53.574;9.976;2023-02-28T15:02:18;4.97;;;3.20;;
14748;SDS011;7466;53.574;9.976;2023-02-28T15:04:54;5.23;;;2.63;;
14748;SDS011;7466;53.574;9.976;2023-02-28T15:07:22;3.17;;;2.47;;
14748;SDS011;7466;53.574;9.976;2023-02-28T15:10:06;4.67;;;3.10;;
14748;SDS011;7466;53.574;9.976;2023-02-28T15:12:35;5.67;;;2.70;;
14748;SDS011;7466;53.574;9.976;2023-02-28T15:15:04;4.30;;;2.60;;
14748;SDS011;7466;53.574;9.976;2023-02-28T15:17:34;4.33;;;2.47;;
14748;SDS011;7466;53.574;9.976;2023-02-28T15:20:02;7.77;;;2.63;;
14748;SDS011;7466;53.574;9.976;2023-02-28T15:22:31;4.03;;;3.00;;
14748;SDS011;7466;53.574;9.976;2023-02-28T15:25:01;3.00;;;2.63;;
14748;SDS011;7466;53.574;9.976;2023-02-28T15:27:31;3.63;;;2.60;;
14748;SDS011;7466;53.574;9.976;2023-02-28T15:30:00;4.23;;;2.87;;
14748;SDS011;7466;53.574;9.976;2023-02-28T15:32:34;3.50;;;2.87;;
14748;SDS011;7466;53.574;9.976;2023-02-28T15:35:17;2.60;;;2.40;;
14748;SDS011;7466;53.574;9.976;2023-02-28T15:37:46;2.63;;;1.87;;
14748;SDS011;7466;53.574;9.976;2023-02-28T15:40:15;6.57;;;3.20;;
14748;SDS011;7466;53.574;9.976;2023-02-28T15:42:58;4.43;;;4.03;;
14748;SDS011;7466;53.574;9.976;2023-02-28T15:45:34;3.80;;;3.30;;
14748;SDS011;7466;53.574;9.976;2023-02-28T15:48:11;3.33;;;2.80;;
14748;SDS011;7466;53.574;9.976;2023-02-28T15:50:43;3.57;;;2.47;;
14748;SDS011;7466;53.574;9.976;2023-02-28T15:53:14;3.07;;;2.50;;
14748;SDS011;7466;53.574;9.976;2023-02-28T15:55:43;4.83;;;2.60;;